createdAt,value
2018-09-02T00:01:30.837Z,7.73
2018-09-02T00:03:59.290Z,8.27
2018-09-02T00:06:27.669Z,6.93
2018-09-02T00:08:56.019Z,6.93
2018-09-02T00:11:24.408Z,6.03
2018-09-02T00:13:52.783Z,6.63
2018-09-02T00:16:21.240Z,10.40
2018-09-02T00:18:49.757Z,5.17
2018-09-02T00:21:18.237Z,6.90
2018-09-02T00:23:46.599Z,6.23
2018-09-02T00:26:14.957Z,7.40
2018-09-02T00:28:43.446Z,7.07
2018-09-02T00:31:11.936Z,8.70
2018-09-02T00:33:40.309Z,5.93
2018-09-02T00:36:08.805Z,6.13
2018-09-02T00:38:37.179Z,7.87
2018-09-02T00:41:05.696Z,4.80
2018-09-02T00:43:34.602Z,6.47
2018-09-02T00:46:02.955Z,7.47
2018-09-02T00:48:31.417Z,6.40
2018-09-02T00:50:59.805Z,5.50
2018-09-02T00:53:28.202Z,7.03
2018-09-02T00:55:56.842Z,6.37
2018-09-02T00:58:25.393Z,6.10
2018-09-02T01:00:53.739Z,7.83
2018-09-02T01:03:22.150Z,7.40
2018-09-02T01:05:51.449Z,6.37
2018-09-02T01:08:19.973Z,6.97
2018-09-02T01:10:48.882Z,5.57
2018-09-02T01:13:17.812Z,7.50
2018-09-02T01:15:47.304Z,6.53
2018-09-02T01:18:16.033Z,6.40
2018-09-02T01:20:44.388Z,7.33
2018-09-02T01:23:12.822Z,7.60
2018-09-02T01:25:41.187Z,5.53
2018-09-02T01:28:09.947Z,6.77
2018-09-02T01:30:38.672Z,6.47
2018-09-02T01:33:07.398Z,7.43
2018-09-02T01:35:36.425Z,6.22
2018-09-02T01:38:05.673Z,7.93
2018-09-02T01:40:35.135Z,8.10
2018-09-02T01:43:03.965Z,6.00
2018-09-02T01:45:32.366Z,6.00
2018-09-02T01:48:00.752Z,6.30
2018-09-02T01:50:29.298Z,7.77
2018-09-02T01:52:57.754Z,7.20
2018-09-02T01:55:26.137Z,6.93
2018-09-02T01:57:54.524Z,6.70
2018-09-02T02:00:22.948Z,5.77
2018-09-02T02:02:51.346Z,6.07
2018-09-02T02:05:19.749Z,7.93
2018-09-02T02:07:48.114Z,7.07
2018-09-02T02:10:16.465Z,7.47
2018-09-02T02:12:44.842Z,5.97
2018-09-02T02:15:13.248Z,6.20
2018-09-02T02:17:41.621Z,6.50
2018-09-02T02:20:10.070Z,5.90
2018-09-02T02:22:38.491Z,6.50
2018-09-02T02:25:06.891Z,6.93
2018-09-02T02:27:35.374Z,7.30
2018-09-02T02:30:03.813Z,7.30
2018-09-02T02:32:32.311Z,5.93
2018-09-02T02:35:00.682Z,5.87
2018-09-02T02:37:29.070Z,6.50
2018-09-02T02:39:57.486Z,6.27
2018-09-02T02:42:25.877Z,8.33
2018-09-02T02:44:54.317Z,5.70
2018-09-02T02:47:22.723Z,5.40
2018-09-02T02:49:51.081Z,5.57
2018-09-02T02:52:19.494Z,8.23
2018-09-02T02:54:47.965Z,5.77
2018-09-02T02:57:16.318Z,6.70
2018-09-02T02:59:44.682Z,5.60
2018-09-02T03:02:13.065Z,5.97
2018-09-02T03:04:41.890Z,5.97
2018-09-02T03:07:11.191Z,6.90
2018-09-02T03:09:39.592Z,5.20
2018-09-02T03:12:08.909Z,6.47
2018-09-02T03:14:37.321Z,5.17
2018-09-02T03:17:05.761Z,6.03
2018-09-02T03:19:34.137Z,6.73
2018-09-02T03:22:02.548Z,7.20
2018-09-02T03:24:30.949Z,5.77
2018-09-02T03:26:59.350Z,6.83
2018-09-02T03:29:27.734Z,6.53
2018-09-02T03:31:56.154Z,6.20
2018-09-02T03:34:24.538Z,7.40
2018-09-02T03:36:52.953Z,6.80
2018-09-02T03:39:21.349Z,5.47
2018-09-02T03:41:50.118Z,7.63
2018-09-02T03:44:18.490Z,5.97
2018-09-02T03:46:46.912Z,5.90
2018-09-02T03:49:15.303Z,7.33
2018-09-02T03:51:43.679Z,6.30
2018-09-02T03:54:12.069Z,7.73
2018-09-02T03:56:40.529Z,7.93
2018-09-02T03:59:08.876Z,6.73
2018-09-02T04:01:37.293Z,5.93
2018-09-02T04:04:05.718Z,6.00
2018-09-02T04:06:34.093Z,5.83
2018-09-02T04:09:02.522Z,8.03
2018-09-02T04:11:30.929Z,6.87
2018-09-02T04:13:59.274Z,6.40
2018-09-02T04:16:27.768Z,6.53
2018-09-02T04:18:56.150Z,6.50
2018-09-02T04:21:24.624Z,5.73
2018-09-02T04:23:53.018Z,7.27
2018-09-02T04:26:21.887Z,5.97
2018-09-02T04:28:50.297Z,6.63
2018-09-02T04:31:18.734Z,6.17
2018-09-02T04:33:47.228Z,6.27
2018-09-02T04:36:15.546Z,6.17
2018-09-02T04:38:43.934Z,7.23
2018-09-02T04:41:12.294Z,8.00
2018-09-02T04:43:40.693Z,6.87
2018-09-02T04:46:09.141Z,6.10
2018-09-02T04:48:37.578Z,8.00
2018-09-02T04:51:06.237Z,6.53
2018-09-02T04:53:34.577Z,6.70
2018-09-02T04:56:03.088Z,6.40
2018-09-02T04:58:31.456Z,8.03
2018-09-02T05:00:59.867Z,6.13
2018-09-02T05:03:28.228Z,6.83
2018-09-02T05:05:57.506Z,6.37
2018-09-02T05:08:25.900Z,6.53
2018-09-02T05:10:54.314Z,8.13
2018-09-02T05:13:23.344Z,7.27
2018-09-02T05:15:51.762Z,7.93
2018-09-02T05:18:20.201Z,8.13
2018-09-02T05:20:48.582Z,7.10
2018-09-02T05:23:17.025Z,7.20
2018-09-02T05:25:45.439Z,7.17
2018-09-02T05:28:13.845Z,8.00
2018-09-02T05:30:42.222Z,7.30
2018-09-02T05:33:10.624Z,8.10
2018-09-02T05:35:39.038Z,6.63
2018-09-02T05:38:07.418Z,8.10
2018-09-02T05:40:35.842Z,8.03
2018-09-02T05:43:04.305Z,7.57
2018-09-02T05:45:32.641Z,7.33
2018-09-02T05:48:01.069Z,7.43
2018-09-02T05:50:29.453Z,7.93
2018-09-02T05:52:57.870Z,7.57
2018-09-02T05:55:26.258Z,8.70
2018-09-02T05:57:54.638Z,10.07
2018-09-02T06:00:23.045Z,9.03
2018-09-02T06:02:51.506Z,8.97
2018-09-02T06:05:24.021Z,9.00
2018-09-02T06:07:53.013Z,12.17
2018-09-02T06:10:21.420Z,8.63
2018-09-02T06:12:50.015Z,7.50
2018-09-02T06:15:18.469Z,10.53
2018-09-02T06:17:47.049Z,8.03
2018-09-02T06:20:15.749Z,9.63
2018-09-02T06:22:44.160Z,9.70
2018-09-02T06:25:12.570Z,10.83
2018-09-02T06:27:40.978Z,9.70
2018-09-02T06:30:09.541Z,11.20
2018-09-02T06:32:37.963Z,10.53
2018-09-02T06:35:06.477Z,9.63
2018-09-02T06:37:34.871Z,10.63
2018-09-02T06:40:03.328Z,10.23
2018-09-02T06:42:31.831Z,10.33
2018-09-02T06:45:00.258Z,11.30
2018-09-02T06:47:28.597Z,10.40
2018-09-02T06:49:56.966Z,12.33
2018-09-02T06:52:25.362Z,12.27
2018-09-02T06:54:53.806Z,11.60
2018-09-02T06:57:22.206Z,11.97
2018-09-02T06:59:50.586Z,11.87
2018-09-02T07:02:19.000Z,12.20
2018-09-02T07:04:47.388Z,11.90
2018-09-02T07:07:15.744Z,10.93
2018-09-02T07:09:44.522Z,11.73
2018-09-02T07:12:12.937Z,12.77
2018-09-02T07:14:42.107Z,14.53
2018-09-02T07:17:10.519Z,10.97
2018-09-02T07:19:38.987Z,11.40
2018-09-02T07:22:07.400Z,12.97
2018-09-02T07:24:35.894Z,12.00
2018-09-02T07:27:04.509Z,12.90
2018-09-02T07:29:33.601Z,12.30
2018-09-02T07:32:01.983Z,13.60
2018-09-02T07:34:30.857Z,13.53
2018-09-02T07:36:59.300Z,12.83
2018-09-02T07:39:27.716Z,13.23
2018-09-02T07:41:56.113Z,13.60
2018-09-02T07:44:24.487Z,12.03
2018-09-02T07:46:52.950Z,14.00
2018-09-02T07:49:21.322Z,13.27
2018-09-02T07:51:49.712Z,14.13
2018-09-02T07:54:18.218Z,12.97
2018-09-02T07:56:46.604Z,13.73
2018-09-02T07:59:15.153Z,13.87
2018-09-02T08:01:43.569Z,14.30
2018-09-02T08:04:11.946Z,14.50
2018-09-02T08:06:40.522Z,14.03
2018-09-02T08:09:21.965Z,14.10
2018-09-02T08:11:50.425Z,13.87
2018-09-02T08:14:18.810Z,14.33
2018-09-02T08:16:47.946Z,13.67
2018-09-02T08:19:16.345Z,14.47
2018-09-02T08:21:44.799Z,15.53
2018-09-02T08:24:13.193Z,12.80
2018-09-02T08:26:42.225Z,15.17
2018-09-02T08:29:10.870Z,13.83
2018-09-02T08:31:40.307Z,13.70
2018-09-02T08:34:08.773Z,13.20
2018-09-02T08:36:37.305Z,12.73
2018-09-02T08:39:09.187Z,13.53
2018-09-02T08:41:37.670Z,15.17
2018-09-02T08:44:06.302Z,14.53
2018-09-02T08:46:34.659Z,11.33
2018-09-02T08:49:03.081Z,15.67
2018-09-02T08:51:31.558Z,16.03
2018-09-02T08:54:00.033Z,15.67
2018-09-02T08:56:28.386Z,15.60
2018-09-02T08:58:56.846Z,11.80
2018-09-02T09:01:25.265Z,13.80
2018-09-02T09:03:54.510Z,13.43
2018-09-02T09:06:25.546Z,13.00
2018-09-02T09:08:54.463Z,15.43
2018-09-02T09:11:22.767Z,13.20
2018-09-02T09:13:51.120Z,12.53
2018-09-02T09:16:19.663Z,14.33
2018-09-02T09:18:48.105Z,11.30
2018-09-02T09:21:21.604Z,11.00
2018-09-02T09:23:50.042Z,13.27
2018-09-02T09:26:18.448Z,17.57
2018-09-02T09:28:46.964Z,10.80
2018-09-02T09:31:15.390Z,10.27
2018-09-02T09:33:43.931Z,11.83
2018-09-02T09:36:13.381Z,10.27
2018-09-02T09:38:41.878Z,9.73
2018-09-02T09:41:10.649Z,7.63
2018-09-02T09:43:39.590Z,12.43
2018-09-02T09:46:08.230Z,12.93
2018-09-02T09:48:36.493Z,10.63
2018-09-02T09:51:04.963Z,10.90
2018-09-02T09:53:33.754Z,7.83
2018-09-02T09:56:02.238Z,10.73
2018-09-02T09:58:30.742Z,9.23
2018-09-02T10:00:59.125Z,7.70
2018-09-02T10:03:27.517Z,8.47
2018-09-02T10:05:55.904Z,9.43
2018-09-02T10:08:24.269Z,7.87
2018-09-02T10:10:52.717Z,7.40
2018-09-02T10:13:21.162Z,9.07
2018-09-02T10:15:49.545Z,8.53
2018-09-02T10:18:19.204Z,8.83
2018-09-02T10:20:47.513Z,8.10
2018-09-02T10:23:15.884Z,9.17
2018-09-02T10:25:44.294Z,7.57
2018-09-02T10:30:55.064Z,7.40
2018-09-02T10:33:23.476Z,9.13
2018-09-02T10:35:51.848Z,6.40
2018-09-02T10:38:20.237Z,4.60
2018-09-02T10:40:55.364Z,9.63
2018-09-02T10:43:24.577Z,7.23
2018-09-02T10:45:52.974Z,6.33
2018-09-02T10:48:21.463Z,7.13
2018-09-02T10:50:49.946Z,9.33
2018-09-02T10:53:18.286Z,7.10
2018-09-02T10:55:46.766Z,4.60
2018-09-02T10:58:15.271Z,5.00
2018-09-02T11:00:43.782Z,4.07
2018-09-02T11:03:12.228Z,8.17
2018-09-02T11:05:40.690Z,6.20
2018-09-02T11:08:09.062Z,6.63
2018-09-02T11:10:37.437Z,5.37
2018-09-02T11:13:05.962Z,5.30
2018-09-02T11:15:34.387Z,4.03
2018-09-02T11:18:02.922Z,5.87
2018-09-02T11:20:31.282Z,7.60
2018-09-02T11:22:59.822Z,3.17
2018-09-02T11:25:28.605Z,4.03
2018-09-02T11:27:56.982Z,5.80
2018-09-02T11:30:25.351Z,6.67
2018-09-02T11:32:53.893Z,4.10
2018-09-02T11:35:22.378Z,4.47
2018-09-02T11:37:50.845Z,4.10
2018-09-02T11:43:09.301Z,6.87
2018-09-02T11:45:37.695Z,4.47
2018-09-02T11:48:06.173Z,4.03
2018-09-02T11:50:34.563Z,4.37
2018-09-02T11:53:02.958Z,5.60
2018-09-02T11:55:31.361Z,6.07
2018-09-02T11:57:59.790Z,4.77
2018-09-02T12:00:28.177Z,4.03
2018-09-02T12:02:56.568Z,4.40
2018-09-02T12:05:24.950Z,3.27
2018-09-02T12:07:53.317Z,4.10
2018-09-02T12:10:21.691Z,6.33
2018-09-02T12:12:50.569Z,5.20
2018-09-02T12:15:18.958Z,4.53
2018-09-02T12:17:48.192Z,3.87
2018-09-02T12:20:17.137Z,3.60
2018-09-02T12:22:46.170Z,4.40
2018-09-02T12:25:14.537Z,8.00
2018-09-02T12:27:43.783Z,6.57
2018-09-02T12:30:12.174Z,4.73
2018-09-02T12:32:40.549Z,4.00
2018-09-02T12:35:08.938Z,3.63
2018-09-02T12:37:37.325Z,4.93
2018-09-02T12:40:05.786Z,6.03
2018-09-02T12:42:34.173Z,3.57
2018-09-02T12:45:02.613Z,3.90
2018-09-02T12:47:31.026Z,6.00
2018-09-02T12:49:59.416Z,3.50
2018-09-02T12:52:28.268Z,6.23
2018-09-02T12:54:56.721Z,4.67
2018-09-02T12:57:25.099Z,3.03
2018-09-02T12:59:53.634Z,3.30
2018-09-02T13:02:22.013Z,3.20
2018-09-02T13:04:50.417Z,4.00
2018-09-02T13:07:18.902Z,8.57
2018-09-02T13:09:47.291Z,3.53
2018-09-02T13:12:16.230Z,3.73
2018-09-02T13:14:44.696Z,4.87
2018-09-02T13:17:13.058Z,6.73
2018-09-02T13:19:41.501Z,4.03
2018-09-02T13:22:09.944Z,4.00
2018-09-02T13:24:38.403Z,4.40
2018-09-02T13:27:06.857Z,7.17
2018-09-02T13:29:35.314Z,6.47
2018-09-02T13:32:03.836Z,3.77
2018-09-02T13:34:32.207Z,3.87
2018-09-02T13:37:00.566Z,3.50
2018-09-02T13:39:29.066Z,6.07
2018-09-02T13:41:57.447Z,4.37
2018-09-02T13:44:25.882Z,4.17
2018-09-02T13:46:54.271Z,6.10
2018-09-02T13:49:22.654Z,4.27
2018-09-02T13:51:51.032Z,3.97
2018-09-02T13:54:19.460Z,8.20
2018-09-02T13:56:47.813Z,5.57
2018-09-02T13:59:16.189Z,5.07
2018-09-02T14:01:44.609Z,3.50
2018-09-02T14:04:12.988Z,3.43
2018-09-02T14:06:41.403Z,5.30
2018-09-02T14:09:10.106Z,3.60
2018-09-02T14:11:38.613Z,3.63
2018-09-02T14:14:06.982Z,3.43
2018-09-02T14:16:35.368Z,3.60
2018-09-02T14:19:03.799Z,4.13
2018-09-02T14:21:32.151Z,6.77
2018-09-02T14:24:00.535Z,3.23
2018-09-02T14:26:29.037Z,4.30
2018-09-02T14:28:57.392Z,5.27
2018-09-02T14:31:25.853Z,3.83
2018-09-02T14:33:54.318Z,3.53
2018-09-02T14:36:22.786Z,4.03
2018-09-02T14:38:51.434Z,3.20
2018-09-02T14:41:19.936Z,3.27
2018-09-02T14:43:48.518Z,5.73
2018-09-02T14:46:16.869Z,3.27
2018-09-02T14:48:45.340Z,4.63
2018-09-02T14:51:13.765Z,3.80
2018-09-02T14:53:42.119Z,4.10
2018-09-02T14:56:10.517Z,3.83
2018-09-02T14:58:38.925Z,3.60
2018-09-02T15:01:07.264Z,3.60
2018-09-02T15:03:35.659Z,4.33
2018-09-02T15:06:04.264Z,4.77
2018-09-02T15:08:32.740Z,3.13
2018-09-02T15:11:01.151Z,3.67
2018-09-02T15:13:29.568Z,5.83
2018-09-02T15:15:58.010Z,4.40
2018-09-02T15:18:26.459Z,4.83
2018-09-02T15:20:54.874Z,3.67
2018-09-02T15:23:23.277Z,3.50
2018-09-02T15:25:51.665Z,5.80
2018-09-02T15:28:20.081Z,3.80
2018-09-02T15:30:48.433Z,4.43
2018-09-02T15:33:16.781Z,7.20
2018-09-02T15:35:45.182Z,4.57
2018-09-02T15:38:13.549Z,7.27
2018-09-02T15:40:42.037Z,5.03
2018-09-02T15:43:10.415Z,5.60
2018-09-02T15:45:38.890Z,3.97
2018-09-02T15:48:07.362Z,3.40
2018-09-02T15:50:35.934Z,3.40
2018-09-02T15:53:04.402Z,3.87
2018-09-02T15:55:32.754Z,4.23
2018-09-02T15:58:01.152Z,3.50
2018-09-02T16:00:29.606Z,4.50
2018-09-02T16:02:57.993Z,3.37
2018-09-02T16:05:26.385Z,3.70
2018-09-02T16:07:54.785Z,6.20
2018-09-02T16:10:23.124Z,6.20
2018-09-02T16:12:51.619Z,3.23
2018-09-02T16:15:20.069Z,3.47
2018-09-02T16:17:48.463Z,5.67
2018-09-02T16:20:16.944Z,9.03
2018-09-02T16:22:45.594Z,3.63
2018-09-02T16:25:13.999Z,3.87
2018-09-02T16:27:42.360Z,4.50
2018-09-02T16:30:10.777Z,5.40
2018-09-02T16:32:39.206Z,4.50
2018-09-02T16:35:07.749Z,3.80
2018-09-02T16:37:36.186Z,3.90
2018-09-02T16:40:04.607Z,3.40
2018-09-02T16:42:33.100Z,3.37
2018-09-02T16:45:01.496Z,4.63
2018-09-02T16:47:30.161Z,8.37
2018-09-02T16:49:58.537Z,4.10
2018-09-02T16:52:26.956Z,3.77
2018-09-02T16:54:55.342Z,4.63
2018-09-02T16:57:23.727Z,6.80
2018-09-02T16:59:52.152Z,4.30
2018-09-02T17:02:20.553Z,6.07
2018-09-02T17:04:50.385Z,6.83
2018-09-02T17:07:18.857Z,3.87
2018-09-02T17:09:47.284Z,5.47
2018-09-02T17:12:15.663Z,5.40
2018-09-02T17:14:44.160Z,4.30
2018-09-02T17:17:12.536Z,3.50
2018-09-02T17:19:43.919Z,4.70
2018-09-02T17:22:12.330Z,4.40
2018-09-02T17:24:40.789Z,4.50
2018-09-02T17:27:09.166Z,4.13
2018-09-02T17:29:37.529Z,3.93
2018-09-02T17:32:10.559Z,5.63
2018-09-02T17:34:40.306Z,3.40
2018-09-02T17:37:09.398Z,4.07
2018-09-02T17:39:38.181Z,3.80
2018-09-02T17:42:06.601Z,6.87
2018-09-02T17:44:35.045Z,4.23
2018-09-02T17:47:03.766Z,3.40
2018-09-02T17:49:32.198Z,7.03
2018-09-02T17:52:00.546Z,4.40
2018-09-02T17:54:28.993Z,4.73
2018-09-02T17:56:57.498Z,8.30
2018-09-02T17:59:25.890Z,5.43
2018-09-02T18:01:54.288Z,5.97
2018-09-02T18:04:22.685Z,6.23
2018-09-02T18:06:51.155Z,3.93
2018-09-02T18:09:20.092Z,7.37
2018-09-02T18:11:48.434Z,6.30
2018-09-02T18:14:16.858Z,5.77
2018-09-02T18:16:45.281Z,5.00
2018-09-02T18:19:13.760Z,5.87
2018-09-02T18:21:42.288Z,4.47
2018-09-02T18:24:10.700Z,6.33
2018-09-02T18:26:40.165Z,4.73
2018-09-02T18:29:08.778Z,6.77
2018-09-02T18:31:37.864Z,4.80
2018-09-02T18:34:06.894Z,4.93
2018-09-02T18:36:35.835Z,3.83
2018-09-02T18:39:07.114Z,4.13
2018-09-02T18:41:35.595Z,4.70
2018-09-02T18:44:04.677Z,6.10
2018-09-02T18:46:33.606Z,3.67
2018-09-02T18:49:02.505Z,4.83
2018-09-02T18:51:31.348Z,4.90
2018-09-02T18:54:00.476Z,4.93
2018-09-02T18:56:31.198Z,7.30
2018-09-02T18:58:59.854Z,9.37
2018-09-02T19:01:28.306Z,7.40
2018-09-02T19:03:56.718Z,5.70
2018-09-02T19:06:25.192Z,9.90
2018-09-02T19:08:53.595Z,4.87
2018-09-02T19:11:22.014Z,4.13
2018-09-02T19:13:50.678Z,4.30
2018-09-02T19:16:19.159Z,5.80
2018-09-02T19:18:48.525Z,6.30
2018-09-02T19:21:17.243Z,5.53
2018-09-02T19:23:45.947Z,6.47
2018-09-02T19:26:14.350Z,5.20
2018-09-02T19:28:42.791Z,7.17
2018-09-02T19:31:11.693Z,6.30
2018-09-02T19:33:40.280Z,5.33
2018-09-02T19:36:08.952Z,4.90
2018-09-02T19:38:37.619Z,6.37
2018-09-02T19:41:06.121Z,8.30
2018-09-02T19:43:34.726Z,7.93
2018-09-02T19:46:03.225Z,6.27
2018-09-02T19:48:31.633Z,6.43
2018-09-02T19:51:00.004Z,7.23
2018-09-02T19:53:28.546Z,4.60
2018-09-02T19:55:57.000Z,6.70
2018-09-02T19:58:25.654Z,6.27
2018-09-02T20:00:54.081Z,5.13
2018-09-02T20:03:22.450Z,4.47
2018-09-02T20:05:50.861Z,5.67
2018-09-02T20:08:19.226Z,7.60
2018-09-02T20:10:47.896Z,5.97
2018-09-02T20:13:16.572Z,6.70
2018-09-02T20:15:44.973Z,10.43
2018-09-02T20:18:13.505Z,5.17
2018-09-02T20:20:41.909Z,4.70
2018-09-02T20:23:10.373Z,5.57
2018-09-02T20:25:38.753Z,5.30
2018-09-02T20:28:07.273Z,6.20
2018-09-02T20:30:35.723Z,6.40
2018-09-02T20:33:04.161Z,6.53
2018-09-02T20:35:32.747Z,9.10
2018-09-02T20:38:01.273Z,7.40
2018-09-02T20:40:29.687Z,5.77
2018-09-02T20:42:58.069Z,5.10
2018-09-02T20:45:26.616Z,6.93
2018-09-02T20:47:55.057Z,7.20
2018-09-02T20:50:23.449Z,4.53
2018-09-02T20:52:51.870Z,8.17
2018-09-02T20:55:20.233Z,6.73
2018-09-02T20:57:48.621Z,8.00
2018-09-02T21:00:17.167Z,6.90
2018-09-02T21:02:45.606Z,4.47
2018-09-02T21:05:14.262Z,7.53
2018-09-02T21:07:42.647Z,4.97
2018-09-02T21:10:11.029Z,5.47
2018-09-02T21:12:39.596Z,6.27
2018-09-02T21:15:08.153Z,6.23
2018-09-02T21:17:36.645Z,6.13
2018-09-02T21:20:05.082Z,6.67
2018-09-02T21:22:33.509Z,4.93
2018-09-02T21:25:01.878Z,4.57
2018-09-02T21:27:30.262Z,5.20
2018-09-02T21:29:58.637Z,5.77
2018-09-02T21:32:27.041Z,4.87
2018-09-02T21:34:55.494Z,9.97
2018-09-02T21:37:23.844Z,6.03
2018-09-02T21:39:52.185Z,5.53
2018-09-02T21:42:20.553Z,10.40
2018-09-02T21:44:49.049Z,6.83
2018-09-02T21:47:17.518Z,4.87
2018-09-02T21:49:46.217Z,5.40
2018-09-02T21:52:14.565Z,4.50
2018-09-02T21:54:43.150Z,5.57
2018-09-02T21:57:11.637Z,6.30
2018-09-02T21:59:40.054Z,4.10
2018-09-02T22:02:08.444Z,10.27
2018-09-02T22:04:36.946Z,5.97
2018-09-02T22:07:05.629Z,7.43
2018-09-02T22:09:33.973Z,5.20
2018-09-02T22:12:02.369Z,4.60
2018-09-02T22:14:30.725Z,7.90
2018-09-02T22:16:59.086Z,6.83
2018-09-02T22:19:27.465Z,4.80
2018-09-02T22:21:55.939Z,5.00
2018-09-02T22:24:24.350Z,5.87
2018-09-02T22:26:52.769Z,4.93
2018-09-02T22:29:21.141Z,5.17
2018-09-02T22:31:49.600Z,5.23
2018-09-02T22:34:18.010Z,4.90
2018-09-02T22:36:46.361Z,4.97
2018-09-02T22:39:14.729Z,5.00
2018-09-02T22:41:43.158Z,6.83
2018-09-02T22:44:11.557Z,5.97
2018-09-02T22:46:39.955Z,5.90
2018-09-02T22:49:08.356Z,5.97
2018-09-02T22:51:36.736Z,4.33
2018-09-02T22:54:05.191Z,6.23
2018-09-02T22:56:33.602Z,6.07
2018-09-02T22:59:01.952Z,7.73
2018-09-02T23:01:30.345Z,5.23
2018-09-02T23:03:58.722Z,5.70
2018-09-02T23:06:27.101Z,10.50
2018-09-02T23:08:55.910Z,5.97
2018-09-02T23:11:24.345Z,5.20
2018-09-02T23:13:52.693Z,5.00
2018-09-02T23:16:21.061Z,8.20
2018-09-02T23:18:49.569Z,6.53
2018-09-02T23:21:17.921Z,6.47
2018-09-02T23:23:46.386Z,6.57
2018-09-02T23:26:14.786Z,5.00
2018-09-02T23:28:43.207Z,5.53
2018-09-02T23:31:11.592Z,8.03
2018-09-02T23:33:40.091Z,6.40
2018-09-02T23:36:08.442Z,4.73
2018-09-02T23:38:36.830Z,5.57
2018-09-02T23:41:05.366Z,5.60
2018-09-02T23:43:33.835Z,5.60
2018-09-02T23:46:02.245Z,7.00
2018-09-02T23:48:30.621Z,10.17
2018-09-02T23:50:58.969Z,5.10
2018-09-02T23:53:27.321Z,5.77
2018-09-02T23:55:55.712Z,5.47
2018-09-02T23:58:24.081Z,5.33
